createdAt,value
2019-03-31T00:00:38.187Z,1004.33
2019-03-31T00:01:38.211Z,1004.40
2019-03-31T00:02:38.196Z,1004.35
2019-03-31T00:03:38.185Z,1004.33
2019-03-31T00:04:38.152Z,1004.37
2019-03-31T00:05:38.143Z,1004.35
2019-03-31T00:06:38.149Z,1004.28
2019-03-31T00:07:38.185Z,1004.27
2019-03-31T00:08:38.108Z,1004.27
2019-03-31T00:09:38.108Z,1004.30
2019-03-31T00:10:38.085Z,1004.31
2019-03-31T00:11:38.078Z,1004.24
2019-03-31T00:12:38.093Z,1004.32
2019-03-31T00:13:38.081Z,1004.24
2019-03-31T00:14:38.037Z,1004.38
2019-03-31T00:15:38.070Z,1004.41
2019-03-31T00:16:38.017Z,1004.41
2019-03-31T00:17:39.039Z,1004.40
2019-03-31T00:18:39.034Z,1004.40
2019-03-31T00:19:39.044Z,1004.44
2019-03-31T00:20:39.551Z,1004.45
2019-03-31T00:21:38.537Z,1004.42
2019-03-31T00:22:39.029Z,1004.46
2019-03-31T00:23:37.942Z,1004.42
2019-03-31T00:24:37.933Z,1004.47
2019-03-31T00:25:37.919Z,1004.43
2019-03-31T00:26:37.909Z,1004.47
2019-03-31T00:27:37.924Z,1004.46
2019-03-31T00:28:37.894Z,1004.40
2019-03-31T00:29:37.879Z,1004.45
2019-03-31T00:30:37.870Z,1004.44
2019-03-31T00:31:37.855Z,1004.53
2019-03-31T00:32:37.868Z,1004.55
2019-03-31T00:33:37.843Z,1004.53
2019-03-31T00:34:37.827Z,1004.49
2019-03-31T00:35:37.825Z,1004.52
2019-03-31T00:36:37.794Z,1004.45
2019-03-31T00:37:37.828Z,1004.50
2019-03-31T00:38:37.780Z,1004.51
2019-03-31T00:39:37.789Z,1004.48
2019-03-31T00:40:37.756Z,1004.49
2019-03-31T00:41:37.750Z,1004.50
2019-03-31T00:42:37.770Z,1004.50
2019-03-31T00:43:37.764Z,1004.47
2019-03-31T00:44:37.716Z,1004.50
2019-03-31T00:45:37.707Z,1004.51
2019-03-31T00:46:37.699Z,1004.49
2019-03-31T00:47:37.714Z,1004.56
2019-03-31T00:48:37.670Z,1004.57
2019-03-31T00:49:37.660Z,1004.51
2019-03-31T00:50:37.652Z,1004.53
2019-03-31T00:51:37.658Z,1004.58
2019-03-31T00:52:37.651Z,1004.56
2019-03-31T00:53:37.621Z,1004.57
2019-03-31T00:54:37.610Z,1004.58
2019-03-31T00:55:37.603Z,1004.54
2019-03-31T00:56:37.581Z,1004.58
2019-03-31T00:57:37.595Z,1004.60
2019-03-31T00:58:37.564Z,1004.69
2019-03-31T00:59:37.546Z,1004.57
2019-03-31T01:00:37.544Z,1004.60
2019-03-31T01:01:37.539Z,1004.64
2019-03-31T01:02:37.587Z,1004.62
2019-03-31T01:03:37.512Z,1004.65
2019-03-31T01:04:37.502Z,1004.66
2019-03-31T01:05:37.479Z,1004.64
2019-03-31T01:06:37.469Z,1004.61
2019-03-31T01:07:37.525Z,1004.69
2019-03-31T01:08:37.456Z,1004.66
2019-03-31T01:09:37.446Z,1004.73
2019-03-31T01:10:37.436Z,1004.68
2019-03-31T01:11:37.416Z,1004.66
2019-03-31T01:12:37.439Z,1004.71
2019-03-31T01:13:37.405Z,1004.71
2019-03-31T01:14:37.399Z,1004.72
2019-03-31T01:15:37.377Z,1004.68
2019-03-31T01:16:37.366Z,1004.70
2019-03-31T01:17:37.395Z,1004.64
2019-03-31T01:18:37.340Z,1004.69
2019-03-31T01:19:37.400Z,1004.63
2019-03-31T01:20:37.328Z,1004.67
2019-03-31T01:21:37.317Z,1004.74
2019-03-31T01:22:37.334Z,1004.72
2019-03-31T01:23:37.292Z,1004.73
2019-03-31T01:24:37.273Z,1004.75
2019-03-31T01:25:37.262Z,1004.73
2019-03-31T01:26:37.257Z,1004.65
2019-03-31T01:27:37.282Z,1004.77
2019-03-31T01:28:37.238Z,1004.74
2019-03-31T01:29:37.225Z,1004.66
2019-03-31T01:30:37.204Z,1004.71
2019-03-31T01:31:49.606Z,1004.69
2019-03-31T01:32:38.216Z,1004.74
2019-03-31T01:33:37.177Z,1004.76
2019-03-31T01:34:37.167Z,1004.74
2019-03-31T01:35:37.156Z,1004.78
2019-03-31T01:36:37.142Z,1004.76
2019-03-31T01:37:37.163Z,1004.79
2019-03-31T01:38:37.129Z,1004.78
2019-03-31T01:39:37.107Z,1004.82
2019-03-31T01:40:37.114Z,1004.85
2019-03-31T01:41:37.087Z,1004.82
2019-03-31T01:42:37.104Z,1004.80
2019-03-31T01:43:37.080Z,1004.70
2019-03-31T01:44:37.052Z,1004.77
2019-03-31T01:45:37.063Z,1004.79
2019-03-31T01:46:37.045Z,1004.79
2019-03-31T01:47:37.022Z,1004.77
2019-03-31T01:48:37.036Z,1004.76
2019-03-31T01:49:37.001Z,1004.80
2019-03-31T01:50:36.988Z,1004.80
2019-03-31T01:51:36.983Z,1004.80
2019-03-31T01:52:36.967Z,1004.81
2019-03-31T01:53:36.997Z,1004.85
2019-03-31T01:54:36.951Z,1004.81
2019-03-31T01:55:36.938Z,1004.79
2019-03-31T01:56:36.925Z,1004.78
2019-03-31T01:57:36.919Z,1004.80
2019-03-31T01:58:36.942Z,1004.78
2019-03-31T01:59:36.905Z,1004.81
2019-03-31T02:00:36.888Z,1004.81
2019-03-31T02:01:36.884Z,1004.83
2019-03-31T02:02:36.864Z,1004.77
2019-03-31T02:03:36.880Z,1004.78
2019-03-31T02:04:36.834Z,1004.79
2019-03-31T02:05:36.828Z,1004.77
2019-03-31T02:06:36.825Z,1004.81
2019-03-31T02:07:36.808Z,1004.88
2019-03-31T02:08:36.829Z,1004.87
2019-03-31T02:09:36.785Z,1004.96
2019-03-31T02:10:36.782Z,1004.96
2019-03-31T02:11:36.769Z,1004.95
2019-03-31T02:12:36.758Z,1004.91
2019-03-31T02:13:36.781Z,1004.87
2019-03-31T02:14:36.732Z,1004.94
2019-03-31T02:15:36.717Z,1004.94
2019-03-31T02:16:36.702Z,1004.89
2019-03-31T02:17:36.702Z,1005.03
2019-03-31T02:18:36.715Z,1004.89
2019-03-31T02:19:36.670Z,1004.97
2019-03-31T02:20:36.665Z,1004.92
2019-03-31T02:21:36.646Z,1004.83
2019-03-31T02:22:36.642Z,1004.93
2019-03-31T02:23:36.655Z,1004.93
2019-03-31T02:24:36.628Z,1004.90
2019-03-31T02:25:36.608Z,1004.92
2019-03-31T02:26:36.595Z,1004.85
2019-03-31T02:27:36.587Z,1004.87
2019-03-31T02:28:36.614Z,1004.91
2019-03-31T02:29:36.569Z,1004.87
2019-03-31T02:30:36.554Z,1004.91
2019-03-31T02:31:36.545Z,1004.87
2019-03-31T02:32:36.529Z,1004.87
2019-03-31T02:33:36.553Z,1004.85
2019-03-31T02:34:36.526Z,1004.85
2019-03-31T02:35:36.511Z,1004.83
2019-03-31T02:36:36.489Z,1004.89
2019-03-31T02:37:36.483Z,1004.85
2019-03-31T02:38:36.500Z,1004.85
2019-03-31T02:39:36.466Z,1004.84
2019-03-31T02:40:36.452Z,1004.85
2019-03-31T02:41:36.444Z,1004.92
2019-03-31T02:42:36.427Z,1004.88
2019-03-31T02:43:36.440Z,1004.91
2019-03-31T02:44:36.405Z,1004.90
2019-03-31T02:45:36.396Z,1004.92
2019-03-31T02:46:36.392Z,1004.93
2019-03-31T02:47:36.385Z,1004.88
2019-03-31T02:48:36.403Z,1004.88
2019-03-31T02:49:36.351Z,1004.89
2019-03-31T02:50:36.344Z,1004.90
2019-03-31T02:51:36.331Z,1004.91
2019-03-31T02:52:36.339Z,1004.91
2019-03-31T02:53:36.338Z,1004.96
2019-03-31T02:54:36.307Z,1004.92
2019-03-31T02:55:36.304Z,1004.93
2019-03-31T02:56:36.275Z,1004.92
2019-03-31T02:57:36.275Z,1004.88
2019-03-31T02:58:36.286Z,1004.91
2019-03-31T02:59:36.242Z,1004.85
2019-03-31T03:00:36.235Z,1004.87
2019-03-31T03:01:36.221Z,1004.90
2019-03-31T03:02:42.195Z,1004.90
2019-03-31T03:03:37.233Z,1004.89
2019-03-31T03:04:36.182Z,1004.97
2019-03-31T03:05:36.172Z,1004.84
2019-03-31T03:06:36.164Z,1004.98
2019-03-31T03:07:36.158Z,1004.98
2019-03-31T03:08:36.140Z,1005.00
2019-03-31T03:09:36.162Z,1004.99
2019-03-31T03:10:36.122Z,1005.03
2019-03-31T03:11:36.108Z,1005.12
2019-03-31T03:12:36.102Z,1005.06
2019-03-31T03:13:36.097Z,1005.01
2019-03-31T03:14:36.099Z,1004.99
2019-03-31T03:15:36.075Z,1005.00
2019-03-31T03:16:36.049Z,1004.99
2019-03-31T03:17:36.049Z,1005.00
2019-03-31T03:18:36.034Z,1004.99
2019-03-31T03:19:36.051Z,1005.03
2019-03-31T03:20:36.019Z,1005.09
2019-03-31T03:21:35.997Z,1005.08
2019-03-31T03:22:35.983Z,1005.04
2019-03-31T03:23:35.974Z,1005.11
2019-03-31T03:24:35.999Z,1005.08
2019-03-31T03:25:35.958Z,1005.06
2019-03-31T03:26:35.949Z,1005.05
2019-03-31T03:27:35.943Z,1005.02
2019-03-31T03:28:35.923Z,1005.02
2019-03-31T03:29:35.940Z,1005.03
2019-03-31T03:30:36.005Z,1005.07
2019-03-31T03:31:35.920Z,1005.05
2019-03-31T03:32:35.882Z,1005.08
2019-03-31T03:33:35.862Z,1005.04
2019-03-31T03:34:35.899Z,1005.04
2019-03-31T03:35:35.849Z,1005.09
2019-03-31T03:36:35.841Z,1005.09
2019-03-31T03:37:35.831Z,1005.14
2019-03-31T03:38:35.822Z,1005.18
2019-03-31T03:39:35.839Z,1005.13
2019-03-31T03:40:35.798Z,1005.11
2019-03-31T03:41:35.797Z,1005.11
2019-03-31T03:42:35.771Z,1005.10
2019-03-31T03:43:53.602Z,1005.13
2019-03-31T03:44:36.780Z,1005.10
2019-03-31T03:45:35.756Z,1005.11
2019-03-31T03:46:35.731Z,1005.15
2019-03-31T03:47:35.713Z,1005.14
2019-03-31T03:48:35.812Z,1005.10
2019-03-31T03:49:36.645Z,1005.13
2019-03-31T03:50:35.688Z,1005.07
2019-03-31T03:51:35.672Z,1005.09
2019-03-31T03:52:35.662Z,1005.15
2019-03-31T03:53:35.652Z,1005.15
2019-03-31T03:54:35.695Z,1005.16
2019-03-31T03:55:35.637Z,1005.17
2019-03-31T03:56:35.613Z,1005.15
2019-03-31T03:57:35.616Z,1005.13
2019-03-31T03:58:35.601Z,1005.14
2019-03-31T03:59:35.638Z,1005.16
2019-03-31T04:00:35.583Z,1005.22
2019-03-31T04:01:35.567Z,1005.15
2019-03-31T04:02:35.560Z,1005.11
2019-03-31T04:03:35.552Z,1005.21
2019-03-31T04:04:35.571Z,1005.18
2019-03-31T04:05:35.521Z,1005.27
2019-03-31T04:06:35.517Z,1005.24
2019-03-31T04:07:35.504Z,1005.25
2019-03-31T04:08:35.491Z,1005.31
2019-03-31T04:09:35.505Z,1005.30
2019-03-31T04:10:35.467Z,1005.33
2019-03-31T04:11:35.466Z,1005.31
2019-03-31T04:12:35.453Z,1005.33
2019-03-31T04:13:35.457Z,1005.29
2019-03-31T04:14:35.449Z,1005.32
2019-03-31T04:15:35.414Z,1005.33
2019-03-31T04:16:35.401Z,1005.39
2019-03-31T04:17:35.406Z,1005.44
2019-03-31T04:18:35.382Z,1005.46
2019-03-31T04:19:35.414Z,1005.52
2019-03-31T04:20:39.147Z,1005.49
2019-03-31T04:21:35.350Z,1005.51
2019-03-31T04:22:35.341Z,1005.54
2019-03-31T04:23:35.340Z,1005.38
2019-03-31T04:24:35.345Z,1005.46
2019-03-31T04:25:35.314Z,1005.45
2019-03-31T04:26:35.294Z,1005.46
2019-03-31T04:27:35.282Z,1005.49
2019-03-31T04:28:35.279Z,1005.56
2019-03-31T04:29:35.305Z,1005.54
2019-03-31T04:30:35.254Z,1005.54
2019-03-31T04:31:35.256Z,1005.61
2019-03-31T04:32:38.717Z,1005.56
2019-03-31T04:33:50.450Z,1005.55
2019-03-31T04:34:36.245Z,1005.54
2019-03-31T04:35:35.210Z,1005.54
2019-03-31T04:36:35.191Z,1005.60
2019-03-31T04:37:35.182Z,1005.64
2019-03-31T04:38:35.163Z,1005.60
2019-03-31T04:39:35.203Z,1005.67
2019-03-31T04:40:35.150Z,1005.64
2019-03-31T04:41:35.149Z,1005.59
2019-03-31T04:42:35.129Z,1005.69
2019-03-31T04:43:35.119Z,1005.66
2019-03-31T04:44:35.100Z,1005.72
2019-03-31T04:45:35.116Z,1005.67
2019-03-31T04:46:35.092Z,1005.67
2019-03-31T04:47:35.073Z,1005.64
2019-03-31T04:48:35.077Z,1005.70
2019-03-31T04:49:35.044Z,1005.66
2019-03-31T04:50:35.064Z,1005.61
2019-03-31T04:51:35.030Z,1005.58
2019-03-31T04:52:35.024Z,1005.65
2019-03-31T04:53:35.001Z,1005.63
2019-03-31T04:54:35.007Z,1005.75
2019-03-31T04:55:35.015Z,1005.63
2019-03-31T04:56:34.974Z,1005.65
2019-03-31T04:57:34.974Z,1005.64
2019-03-31T04:58:34.959Z,1005.70
2019-03-31T04:59:34.940Z,1005.85
2019-03-31T05:00:34.967Z,1005.77
2019-03-31T05:01:34.914Z,1005.73
2019-03-31T05:02:34.905Z,1005.71
2019-03-31T05:03:34.907Z,1005.88
2019-03-31T05:04:34.882Z,1005.90
2019-03-31T05:05:34.914Z,1005.90
2019-03-31T05:06:34.875Z,1005.89
2019-03-31T05:07:34.849Z,1005.87
2019-03-31T05:08:34.851Z,1005.79
2019-03-31T05:09:34.832Z,1005.73
2019-03-31T05:10:34.850Z,1005.82
2019-03-31T05:11:34.811Z,1005.88
2019-03-31T05:12:34.799Z,1005.93
2019-03-31T05:13:34.789Z,1005.93
2019-03-31T05:14:34.801Z,1005.90
2019-03-31T05:15:34.799Z,1005.91
2019-03-31T05:16:34.755Z,1005.92
2019-03-31T05:17:35.935Z,1005.86
2019-03-31T05:18:34.733Z,1005.95
2019-03-31T05:19:34.763Z,1005.91
2019-03-31T05:20:34.734Z,1006.01
2019-03-31T05:21:34.710Z,1005.93
2019-03-31T05:22:34.694Z,1006.00
2019-03-31T05:23:34.679Z,1006.03
2019-03-31T05:24:34.670Z,1006.04
2019-03-31T05:25:44.157Z,1006.06
2019-03-31T05:26:34.637Z,1006.10
2019-03-31T05:27:34.620Z,1006.10
2019-03-31T05:28:34.611Z,1006.15
2019-03-31T05:29:34.606Z,1006.17
2019-03-31T05:30:34.619Z,1006.23
2019-03-31T05:31:34.582Z,1006.17
2019-03-31T05:32:34.572Z,1006.23
2019-03-31T05:33:34.556Z,1006.16
2019-03-31T05:34:34.551Z,1006.31
2019-03-31T05:35:34.563Z,1006.24
2019-03-31T05:36:34.524Z,1006.25
2019-03-31T05:37:34.516Z,1006.28
2019-03-31T05:38:34.516Z,1006.27
2019-03-31T05:39:34.495Z,1006.24
2019-03-31T05:40:34.507Z,1006.42
2019-03-31T05:41:34.472Z,1006.39
2019-03-31T05:42:34.462Z,1006.40
2019-03-31T05:43:34.447Z,1006.39
2019-03-31T05:44:34.440Z,1006.40
2019-03-31T05:45:34.457Z,1006.31
2019-03-31T05:46:34.421Z,1006.35
2019-03-31T05:47:34.412Z,1006.36
2019-03-31T05:48:34.396Z,1006.42
2019-03-31T05:49:34.389Z,1006.36
2019-03-31T05:50:34.399Z,1006.40
2019-03-31T05:51:34.365Z,1006.43
2019-03-31T05:52:34.355Z,1006.44
2019-03-31T05:53:34.350Z,1006.53
2019-03-31T05:54:35.184Z,1006.51
2019-03-31T05:55:34.348Z,1006.62
2019-03-31T05:56:34.315Z,1006.61
2019-03-31T05:57:34.302Z,1006.64
2019-03-31T05:58:34.288Z,1006.59
2019-03-31T05:59:34.275Z,1006.68
2019-03-31T06:00:34.319Z,1006.72
2019-03-31T06:01:34.261Z,1006.60
2019-03-31T06:02:34.246Z,1006.63
2019-03-31T06:03:34.266Z,1006.66
2019-03-31T06:04:34.246Z,1006.65
2019-03-31T06:05:34.434Z,1006.71
2019-03-31T06:06:36.944Z,1006.70
2019-03-31T06:07:34.294Z,1006.78
2019-03-31T06:08:34.202Z,1006.83
2019-03-31T06:09:34.314Z,1006.84
2019-03-31T06:10:34.188Z,1006.76
2019-03-31T06:11:34.233Z,1006.89
2019-03-31T06:12:34.437Z,1006.84
2019-03-31T06:13:34.128Z,1006.88
2019-03-31T06:14:34.120Z,1006.95
2019-03-31T06:15:34.160Z,1006.89
2019-03-31T06:16:34.362Z,1006.90
2019-03-31T06:17:34.083Z,1006.91
2019-03-31T06:18:34.075Z,1006.95
2019-03-31T06:19:34.066Z,1006.99
2019-03-31T06:20:34.054Z,1006.93
2019-03-31T06:21:34.068Z,1007.05
2019-03-31T06:22:34.032Z,1006.96
2019-03-31T06:23:34.021Z,1007.00
2019-03-31T06:24:34.008Z,1006.98
2019-03-31T06:25:34.002Z,1007.01
2019-03-31T06:26:34.015Z,1007.00
2019-03-31T06:27:33.979Z,1007.07
2019-03-31T06:28:33.963Z,1007.00
2019-03-31T06:29:33.951Z,1006.96
2019-03-31T06:30:33.945Z,1007.00
2019-03-31T06:31:33.959Z,1006.99
2019-03-31T06:32:33.927Z,1007.09
2019-03-31T06:33:33.920Z,1006.91
2019-03-31T06:34:46.871Z,1007.01
2019-03-31T06:35:34.933Z,1007.10
2019-03-31T06:36:33.903Z,1007.06
2019-03-31T06:37:33.873Z,1007.05
2019-03-31T06:38:33.854Z,1007.07
2019-03-31T06:39:34.315Z,1007.06
2019-03-31T06:40:33.832Z,1007.13
2019-03-31T06:41:33.856Z,1007.11
2019-03-31T06:42:33.812Z,1007.11
2019-03-31T06:43:33.804Z,1007.10
2019-03-31T06:44:33.790Z,1007.03
2019-03-31T06:45:33.780Z,1007.15
2019-03-31T06:46:33.802Z,1007.10
2019-03-31T06:47:33.770Z,1007.15
2019-03-31T06:48:33.746Z,1007.14
2019-03-31T06:49:33.739Z,1007.03
2019-03-31T06:50:33.729Z,1007.06
2019-03-31T06:51:33.741Z,1007.13
2019-03-31T06:52:33.706Z,1007.14
2019-03-31T06:53:33.695Z,1007.17
2019-03-31T06:54:33.686Z,1007.14
2019-03-31T06:55:33.674Z,1007.18
2019-03-31T06:56:33.690Z,1007.15
2019-03-31T06:57:33.652Z,1007.21
2019-03-31T06:58:33.639Z,1007.19
2019-03-31T06:59:33.628Z,1007.22
2019-03-31T07:00:33.625Z,1007.20
2019-03-31T07:01:33.635Z,1007.27
2019-03-31T07:02:33.597Z,1007.24
2019-03-31T07:03:33.586Z,1007.30
2019-03-31T07:04:33.578Z,1007.36
2019-03-31T07:05:33.566Z,1007.27
2019-03-31T07:06:33.579Z,1007.38
2019-03-31T07:07:33.540Z,1007.36
2019-03-31T07:08:33.532Z,1007.41
2019-03-31T07:09:33.538Z,1007.33
2019-03-31T07:10:33.510Z,1007.39
2019-03-31T07:11:33.542Z,1007.30
2019-03-31T07:12:33.491Z,1007.41
2019-03-31T07:13:33.479Z,1007.44
2019-03-31T07:14:33.472Z,1007.51
2019-03-31T07:15:33.458Z,1007.55
2019-03-31T07:16:33.470Z,1007.49
2019-03-31T07:17:33.439Z,1007.53
2019-03-31T07:18:33.420Z,1007.58
2019-03-31T07:19:33.419Z,1007.53
2019-03-31T07:20:33.404Z,1007.49
2019-03-31T07:21:33.436Z,1007.62
2019-03-31T07:22:33.380Z,1007.61
2019-03-31T07:23:33.366Z,1007.58
2019-03-31T07:24:33.402Z,1007.60
2019-03-31T07:25:33.349Z,1007.68
2019-03-31T07:26:33.342Z,1007.67
2019-03-31T07:27:33.351Z,1007.54
2019-03-31T07:28:33.322Z,1007.60
2019-03-31T07:29:33.303Z,1007.67
2019-03-31T07:30:33.297Z,1007.69
2019-03-31T07:31:33.283Z,1007.65
2019-03-31T07:32:33.299Z,1007.64
2019-03-31T07:33:33.263Z,1007.61
2019-03-31T07:34:33.251Z,1007.61
2019-03-31T07:35:33.252Z,1007.57
2019-03-31T07:36:33.234Z,1007.71
2019-03-31T07:37:46.378Z,1007.62
2019-03-31T07:38:39.204Z,1007.61
2019-03-31T07:39:34.534Z,1007.55
2019-03-31T07:40:33.502Z,1007.59
2019-03-31T07:41:33.400Z,1007.61
2019-03-31T07:42:33.194Z,1007.65
2019-03-31T07:43:33.152Z,1007.65
2019-03-31T07:44:33.145Z,1007.68
2019-03-31T07:45:33.134Z,1007.58
2019-03-31T07:46:33.125Z,1007.61
2019-03-31T07:47:33.140Z,1007.57
2019-03-31T07:48:33.102Z,1007.56
2019-03-31T07:49:33.088Z,1007.66
2019-03-31T07:50:33.075Z,1007.60
2019-03-31T07:51:33.070Z,1007.63
2019-03-31T07:52:33.081Z,1007.63
2019-03-31T07:53:33.046Z,1007.74
2019-03-31T07:54:33.031Z,1007.66
2019-03-31T07:55:33.020Z,1007.67
2019-03-31T07:56:33.009Z,1007.75
2019-03-31T07:57:33.054Z,1007.82
2019-03-31T07:58:32.994Z,1007.78
2019-03-31T07:59:33.031Z,1007.78
2019-03-31T08:00:32.967Z,1007.76
2019-03-31T08:01:32.957Z,1007.82
2019-03-31T08:02:32.971Z,1007.70
2019-03-31T08:03:32.933Z,1007.88
2019-03-31T08:04:32.925Z,1007.85
2019-03-31T08:05:37.410Z,1007.83
2019-03-31T08:06:32.906Z,1007.79
2019-03-31T08:07:32.917Z,1007.80
2019-03-31T08:08:32.883Z,1007.76
2019-03-31T08:09:32.869Z,1007.83
2019-03-31T08:10:32.866Z,1007.77
2019-03-31T08:11:32.852Z,1007.70
2019-03-31T08:12:32.872Z,1007.80
2019-03-31T08:13:32.823Z,1007.75
2019-03-31T08:14:32.830Z,1007.76
2019-03-31T08:15:32.810Z,1007.88
2019-03-31T08:16:32.797Z,1007.80
2019-03-31T08:17:32.824Z,1007.78
2019-03-31T08:18:32.771Z,1007.90
2019-03-31T08:19:32.764Z,1007.89
2019-03-31T08:20:32.749Z,1007.88
2019-03-31T08:21:32.742Z,1007.92
2019-03-31T08:22:32.758Z,1007.93
2019-03-31T08:23:32.721Z,1007.84
2019-03-31T08:24:32.707Z,1007.90
2019-03-31T08:25:32.697Z,1007.83
2019-03-31T08:26:32.687Z,1007.85
2019-03-31T08:27:32.709Z,1007.84
2019-03-31T08:28:32.665Z,1007.83
2019-03-31T08:29:32.655Z,1007.91
2019-03-31T08:30:32.648Z,1007.96
2019-03-31T08:31:32.638Z,1007.93
2019-03-31T08:32:32.652Z,1007.89
2019-03-31T08:33:32.612Z,1007.88
2019-03-31T08:34:32.599Z,1007.93
2019-03-31T08:35:46.213Z,1007.98
2019-03-31T08:36:35.268Z,1007.93
2019-03-31T08:37:32.674Z,1008.02
2019-03-31T08:38:32.568Z,1007.96
2019-03-31T08:39:32.554Z,1008.08
2019-03-31T08:40:32.537Z,1008.01
2019-03-31T08:41:32.526Z,1007.91
2019-03-31T08:42:32.543Z,1008.12
2019-03-31T08:43:32.503Z,1008.09
2019-03-31T08:44:32.491Z,1008.15
2019-03-31T08:45:32.480Z,1008.15
2019-03-31T08:46:32.468Z,1008.17
2019-03-31T08:47:32.488Z,1008.24
2019-03-31T08:48:32.450Z,1008.25
2019-03-31T08:49:32.438Z,1008.19
2019-03-31T08:50:34.788Z,1008.25
2019-03-31T08:51:32.496Z,1008.19
2019-03-31T08:52:32.432Z,1008.28
2019-03-31T08:53:32.398Z,1008.30
2019-03-31T08:54:32.389Z,1008.25
2019-03-31T08:55:32.377Z,1008.28
2019-03-31T08:56:32.369Z,1008.36
2019-03-31T08:57:32.379Z,1008.38
2019-03-31T08:58:32.376Z,1008.44
2019-03-31T08:59:32.327Z,1008.44
2019-03-31T09:00:32.317Z,1008.44
2019-03-31T09:01:32.302Z,1008.47
2019-03-31T09:02:32.298Z,1008.43
2019-03-31T09:03:32.321Z,1008.34
2019-03-31T09:04:32.271Z,1008.42
2019-03-31T09:05:32.265Z,1008.51
2019-03-31T09:06:32.259Z,1008.36
2019-03-31T09:07:32.242Z,1008.39
2019-03-31T09:08:32.264Z,1008.42
2019-03-31T09:09:32.222Z,1008.42
2019-03-31T09:10:32.212Z,1008.44
2019-03-31T09:11:32.195Z,1008.53
2019-03-31T09:12:32.191Z,1008.46
2019-03-31T09:13:32.208Z,1008.55
2019-03-31T09:14:32.163Z,1008.48
2019-03-31T09:15:32.161Z,1008.53
2019-03-31T09:16:32.145Z,1008.56
2019-03-31T09:17:32.131Z,1008.48
2019-03-31T09:18:32.149Z,1008.45
2019-03-31T09:19:32.117Z,1008.43
2019-03-31T09:20:32.107Z,1008.50
2019-03-31T09:21:32.088Z,1008.43
2019-03-31T09:22:32.077Z,1008.48
2019-03-31T09:23:32.093Z,1008.52
2019-03-31T09:24:32.060Z,1008.40
2019-03-31T09:25:32.045Z,1008.48
2019-03-31T09:26:32.037Z,1008.43
2019-03-31T09:27:32.029Z,1008.50
2019-03-31T09:28:32.040Z,1008.64
2019-03-31T09:29:32.016Z,1008.62
2019-03-31T09:30:32.001Z,1008.53
2019-03-31T09:31:31.981Z,1008.62
2019-03-31T09:32:31.969Z,1008.58
2019-03-31T09:33:31.987Z,1008.48
2019-03-31T09:34:31.953Z,1008.58
2019-03-31T09:35:31.943Z,1008.53
2019-03-31T09:36:31.922Z,1008.48
2019-03-31T09:37:31.925Z,1008.47
2019-03-31T09:38:31.936Z,1008.61
2019-03-31T09:39:31.902Z,1008.62
2019-03-31T09:40:31.886Z,1008.61
2019-03-31T09:41:31.875Z,1008.63
2019-03-31T09:42:31.863Z,1008.62
2019-03-31T09:43:31.877Z,1008.59
2019-03-31T09:44:31.846Z,1008.66
2019-03-31T09:45:31.832Z,1008.54
2019-03-31T09:46:31.831Z,1008.55
2019-03-31T09:47:31.813Z,1008.59
2019-03-31T09:48:31.834Z,1008.60
2019-03-31T09:49:31.789Z,1008.69
2019-03-31T09:50:31.779Z,1008.52
2019-03-31T09:51:31.774Z,1008.63
2019-03-31T09:52:31.759Z,1008.59
2019-03-31T09:53:31.776Z,1008.59
2019-03-31T09:54:31.740Z,1008.64
2019-03-31T09:55:31.728Z,1008.65
2019-03-31T09:56:31.715Z,1008.64
2019-03-31T09:57:31.710Z,1008.64
2019-03-31T09:58:31.714Z,1008.67
2019-03-31T09:59:31.684Z,1008.69
2019-03-31T10:00:31.673Z,1008.69
2019-03-31T10:01:31.662Z,1008.73
2019-03-31T10:02:31.651Z,1008.62
2019-03-31T10:03:31.675Z,1008.63
2019-03-31T10:04:31.638Z,1008.64
2019-03-31T10:05:31.618Z,1008.65
2019-03-31T10:06:31.607Z,1008.71
2019-03-31T10:07:31.601Z,1008.65
2019-03-31T10:08:31.612Z,1008.61
2019-03-31T10:09:31.578Z,1008.55
2019-03-31T10:10:31.560Z,1008.63
2019-03-31T10:11:31.562Z,1008.66
2019-03-31T10:12:31.539Z,1008.73
2019-03-31T10:13:31.558Z,1008.65
2019-03-31T10:14:31.526Z,1008.55
2019-03-31T10:15:31.507Z,1008.59
2019-03-31T10:16:31.509Z,1008.63
2019-03-31T10:17:31.488Z,1008.68
2019-03-31T10:18:31.504Z,1008.67
2019-03-31T10:19:31.462Z,1008.60
2019-03-31T10:20:31.907Z,1008.63
2019-03-31T10:21:31.446Z,1008.70
2019-03-31T10:22:31.437Z,1008.64
2019-03-31T10:23:31.444Z,1008.59
2019-03-31T10:24:31.408Z,1008.72
2019-03-31T10:25:31.404Z,1008.67
2019-03-31T10:26:32.500Z,1008.68
2019-03-31T10:27:31.376Z,1008.67
2019-03-31T10:28:31.395Z,1008.71
2019-03-31T10:29:31.352Z,1008.71
2019-03-31T10:30:31.351Z,1008.69
2019-03-31T10:31:31.336Z,1008.64
2019-03-31T10:32:31.327Z,1008.77
2019-03-31T10:33:31.337Z,1008.68
2019-03-31T10:34:31.299Z,1008.73
2019-03-31T10:35:31.291Z,1008.74
2019-03-31T10:36:43.805Z,1008.72
2019-03-31T10:37:32.269Z,1008.74
2019-03-31T10:38:31.279Z,1008.72
2019-03-31T10:39:31.245Z,1008.73
2019-03-31T10:40:31.235Z,1008.78
2019-03-31T10:41:31.228Z,1008.74
2019-03-31T10:42:31.214Z,1008.73
2019-03-31T10:43:31.221Z,1008.73
2019-03-31T10:44:31.193Z,1008.65
2019-03-31T10:45:31.173Z,1008.78
2019-03-31T10:46:31.168Z,1008.74
2019-03-31T10:47:31.157Z,1008.79
2019-03-31T10:48:31.184Z,1008.78
2019-03-31T10:49:31.144Z,1008.77
2019-03-31T10:50:31.124Z,1008.78
2019-03-31T10:51:31.113Z,1008.83
2019-03-31T10:52:31.102Z,1008.84
2019-03-31T10:53:31.088Z,1008.91
2019-03-31T10:54:31.116Z,1008.84
2019-03-31T10:55:31.104Z,1008.83
2019-03-31T10:56:31.055Z,1008.83
2019-03-31T10:57:31.046Z,1008.84
2019-03-31T10:58:31.035Z,1008.79
2019-03-31T10:59:31.048Z,1008.79
2019-03-31T11:00:31.016Z,1008.76
2019-03-31T11:01:31.003Z,1008.83
2019-03-31T11:02:30.986Z,1008.76
2019-03-31T11:03:33.081Z,1008.91
2019-03-31T11:04:31.000Z,1008.79
2019-03-31T11:05:30.967Z,1008.78
2019-03-31T11:06:30.971Z,1008.86
2019-03-31T11:07:30.936Z,1008.79
2019-03-31T11:08:30.929Z,1008.77
2019-03-31T11:09:34.249Z,1008.81
2019-03-31T11:10:30.906Z,1008.84
2019-03-31T11:11:30.893Z,1008.78
2019-03-31T11:12:30.886Z,1008.73
2019-03-31T11:13:30.876Z,1008.83
2019-03-31T11:14:30.892Z,1008.79
2019-03-31T11:15:30.857Z,1008.82
2019-03-31T11:16:30.843Z,1008.83
2019-03-31T11:17:30.832Z,1008.82
2019-03-31T11:18:30.819Z,1008.82
2019-03-31T11:19:30.908Z,1008.76
2019-03-31T11:20:30.802Z,1008.84
2019-03-31T11:21:30.797Z,1008.89
2019-03-31T11:22:30.786Z,1008.86
2019-03-31T11:23:30.768Z,1008.85
2019-03-31T11:24:30.782Z,1008.93
2019-03-31T11:25:41.768Z,1008.93
2019-03-31T11:26:30.731Z,1008.95
2019-03-31T11:27:30.726Z,1008.88
2019-03-31T11:28:30.715Z,1008.83
2019-03-31T11:29:30.727Z,1008.86
2019-03-31T11:30:30.688Z,1008.91
2019-03-31T11:31:30.751Z,1008.87
2019-03-31T11:32:30.673Z,1008.85
2019-03-31T11:33:30.657Z,1008.92
2019-03-31T11:34:30.673Z,1008.85
2019-03-31T11:35:30.637Z,1008.69
2019-03-31T11:36:30.623Z,1008.91
2019-03-31T11:37:30.614Z,1008.92
2019-03-31T11:38:30.607Z,1008.83
2019-03-31T11:39:30.624Z,1008.82
2019-03-31T11:40:30.587Z,1008.88
2019-03-31T11:41:30.587Z,1008.83
2019-03-31T11:42:30.639Z,1008.92
2019-03-31T11:43:30.555Z,1008.80
2019-03-31T11:44:30.604Z,1008.87
2019-03-31T11:45:30.535Z,1008.84
2019-03-31T11:46:30.521Z,1008.85
2019-03-31T11:47:30.503Z,1008.91
2019-03-31T11:48:30.501Z,1008.82
2019-03-31T11:49:30.517Z,1008.96
2019-03-31T11:50:30.475Z,1008.90
2019-03-31T11:51:30.465Z,1008.95
2019-03-31T11:52:30.450Z,1008.87
2019-03-31T11:53:30.453Z,1008.90
2019-03-31T11:54:30.474Z,1008.90
2019-03-31T11:55:30.423Z,1008.91
2019-03-31T11:56:30.409Z,1008.96
2019-03-31T11:57:30.397Z,1008.83
2019-03-31T11:58:32.264Z,1008.84
2019-03-31T11:59:30.452Z,1008.90
2019-03-31T12:00:30.367Z,1008.94
2019-03-31T12:01:30.361Z,1008.87
2019-03-31T12:02:30.342Z,1008.83
2019-03-31T12:03:31.186Z,1008.81
2019-03-31T12:04:30.353Z,1008.91
2019-03-31T12:05:30.311Z,1008.88